ADDS METAR Data INFO
IDs: Format: Raw Decoded Include TAF

Data at: 0747 UTC 21 Jul 2018

PAKT 210653Z AUTO 18004KT 10SM CLR 14/12 A3022 RMK AO2 SLP235 T01390122 TSNO
PAKT 210553Z AUTO 16006KT 10SM CLR 14/12 A3022 RMK AO2 SLP234 T01440117 10228 20144 51012 TSNO
PAKT 210453Z 17004KT 10SM CLR 17/11 A3021 RMK AO2 SLP231 T01670111
PAKT 210353Z 13006KT 10SM CLR 18/12 A3020 RMK AO2 SLP226 T01780117
PAKT 210253Z 12009KT 10SM CLR 19/11 A3018 RMK AO2 SLP221 T01890111 53002
PAKT 210153Z 32006KT 10SM CLR 21/11 A3017 RMK AO2 SLP216 T02110111
PAKT 210053Z 33008KT 10SM CLR 22/11 A3017 RMK AO2 SLP216 T02170111
PAKT 202353Z 34009KT 10SM CLR 22/11 A3018 RMK AO2 SLP218 HARBOR WND 28014KT T02170111 10222 20167 58005
PAKT 202253Z 33008KT 10SM CLR 22/11 A3018 RMK AO2 SLP220 HARBOR WND 28014KT T02170111
PAKT 202153Z 33010KT 10SM CLR 21/12 A3019 RMK AO2 SLP223 HARBOR WIND 28015KT T02110117
PAKT 202053Z 31009G18KT 270V330 10SM FEW040 21/11 A3019 RMK AO2 SLP223 HARBOR WIND 30016KT T02060111 55004
PAKT 201953Z 31009KT 10SM FEW040 19/11 A3019 RMK AO2 SLP222 HARBOR WND 30015KT T01940106
PAKT 201853Z 33011KT 10SM SCT027 18/10 A3020 RMK AO2 SLP225 HARBOR WND 27014KT T01830100
PAKT 201753Z 30009KT 10SM BKN026 17/11 A3020 RMK AO2 SLP227 HARBOR WIND 30013KT T01670106 10172 20139 58002
PAKT 201653Z 33008KT 10SM BKN034 16/11 A3021 RMK AO2 SLP230 HARBOR WIND 30013K T01560106
PAKT 201553Z 32006KT 10SM SCT024 BKN040 15/11 A3021 RMK AO2 SLP228 HARBOR WND 28012KT T01500106
PAKT 201453Z 31007KT 10SM SCT024 BKN060 14/11 A3021 RMK AO2 SLP229 HARBOR WND 31011KT T01440106 50004
PAKT 201409Z 35006KT 10SM BKN024 14/11 A3022 RMK AO2 HARBOR WND 30010KT T01440106
PAKT 201353Z AUTO 02004KT 10SM OVC024 14/11 A3022 RMK AO2 SLP233 T01440106 TSNO
PAKT 201253Z AUTO 01007KT 10SM BKN027 14/11 A3020 RMK AO2 SLP226 T01390106 TSNO
PAKT 201250Z AUTO 01007KT 10SM BKN027 14/11 A3020 RMK AO2 TSNO
PAKT 201213Z AUTO 36009KT 10SM SCT029 14/11 A3019 RMK AO2 T01390106 TSNO
PAKT 201153Z AUTO 35008KT 10SM BKN029 BKN110 14/11 A3019 RMK AO2 SLP225 T01390106 10167 20139 50003 TSNO
PAKT 201145Z AUTO 35007KT 10SM BKN029 OVC110 14/11 A3019 RMK AO2 T01390106 TSNO
PAKT 201053Z AUTO 35006KT 10SM BKN100 14/11 A3020 RMK AO2 SLP227 T01440106 TSNO
PAKT 200953Z AUTO 34010KT 10SM FEW095 SCT120 15/11 A3020 RMK AO2 SLP225 T01500106 TSNO
PAKT 200853Z AUTO 35008KT 10SM SCT110 15/11 A3019 RMK AO2 SLP222 T01500111 402000128 50004 TSNO
PAKT 200753Z AUTO 34008KT 10SM BKN110 15/11 A3019 RMK AO2 SLP223 T01500106 TSNO
PAKT 200653Z AUTO 36009KT 10SM FEW039 16/11 A3018 RMK AO2 SLP221 T01560106 TSNO
PAKT 200553Z AUTO 35007KT 10SM BKN045 17/11 A3017 RMK AO2 SLP217 T01670106 10200 20161 53006 TSNO
PAKT 200453Z VRB06KT 10SM SCT070 17/09 A3017 RMK AO2 SLP217 T01670094
PAKT 200353Z 30005KT 10SM FEW070 18/08 A3016 RMK AO2 SLP212 HARBOR WIND 29012KT T01780083
PAKT 200253Z 32008KT 10SM CLR 19/09 A3016 RMK AO2 SLP211 HARBOR WIND 28015KT T01940089 58005
PAKT 200153Z 33008KT 10SM FEW050 19/09 A3016 RMK AO2 SLP215 HARBOR WIND 28014KT T01940089
PAKT 200053Z 30008KT 10SM FEW050 19/08 A3017 RMK AO2 SLP215 HARBOR WIND 28015KT T01940083
PAKT 192353Z 32008KT 10SM SCT050 18/09 A3017 RMK AO2 SLP218 HARBOR WND 28015KT T01830089 10194 20156 58004
PAKT 192253Z 32009KT 10SM BKN050 BKN090 18/09 A3018 RMK AO2 SLP221 HARBOR WND 28014KT T01780089
PAKT 192153Z 32009KT 10SM FEW035 BKN050 18/09 A3018 RMK AO2 SLP222 HARBOR WIND 27015KT T01830089
PAKT 192053Z 34011KT 10SM BKN050 17/10 A3018 RMK AO2 SLP222 HARBOR WIND 28014KT T01720100 58001
PAKT 191953Z 32008KT 10SM BKN041 16/10 A3019 RMK AO2 SLP224 HARBOR WIND 30014KT T01560100